createdAt,value
2022-08-17T00:02:26.216Z,52.92
2022-08-17T00:04:55.272Z,53.91
2022-08-17T00:07:22.723Z,53.81
2022-08-17T00:09:49.242Z,53.50
2022-08-17T00:12:42.744Z,53.59
2022-08-17T00:15:02.448Z,53.32
2022-08-17T00:17:29.083Z,53.15
2022-08-17T00:19:55.585Z,53.05
2022-08-17T00:22:31.974Z,53.00
2022-08-17T00:25:07.061Z,52.82
2022-08-17T00:27:33.659Z,52.81
2022-08-17T00:30:00.389Z,52.44
2022-08-17T00:33:14.352Z,51.82
2022-08-17T00:35:18.266Z,51.17
2022-08-17T00:37:44.853Z,50.76
2022-08-17T00:40:14.668Z,51.37
2022-08-17T00:42:42.739Z,51.45
2022-08-17T00:45:17.583Z,51.38
2022-08-17T00:47:44.653Z,51.45
2022-08-17T00:50:14.092Z,51.39
2022-08-17T00:52:52.616Z,51.48
2022-08-17T00:55:19.981Z,51.23
2022-08-17T00:57:53.461Z,51.15
2022-08-17T01:00:32.347Z,51.03
2022-08-17T01:03:26.000Z,50.91
2022-08-17T01:05:56.718Z,51.21
2022-08-17T01:08:27.331Z,51.42
2022-08-17T01:10:59.779Z,51.66
2022-08-17T01:13:41.202Z,51.75
2022-08-17T01:16:20.329Z,51.65
2022-08-17T01:18:50.553Z,50.81
2022-08-17T01:21:42.071Z,50.32
2022-08-17T01:24:08.938Z,50.42
2022-08-17T01:26:37.958Z,50.46
2022-08-17T01:29:06.048Z,50.71
2022-08-17T01:31:38.743Z,50.89
2022-08-17T01:34:10.615Z,51.14
2022-08-17T01:36:39.788Z,51.26
2022-08-17T01:39:11.654Z,51.01
2022-08-17T01:41:40.940Z,51.50
2022-08-17T01:44:08.809Z,51.64
2022-08-17T01:46:37.106Z,52.19
2022-08-17T01:49:09.176Z,51.94
2022-08-17T01:51:35.781Z,52.12
2022-08-17T01:54:05.572Z,52.36
2022-08-17T01:56:35.023Z,52.81
2022-08-17T01:59:01.570Z,53.05
2022-08-17T02:01:30.598Z,53.00
2022-08-17T02:04:00.754Z,53.26
2022-08-17T02:06:52.675Z,52.98
2022-08-17T02:09:25.867Z,52.70
2022-08-17T02:11:56.887Z,52.86
2022-08-17T02:14:23.689Z,52.85
2022-08-17T02:16:50.410Z,53.10
2022-08-17T02:19:17.143Z,53.13
2022-08-17T02:21:47.988Z,53.20
2022-08-17T02:24:58.685Z,53.20
2022-08-17T02:27:06.830Z,53.43
2022-08-17T02:29:33.398Z,53.53
2022-08-17T02:32:00.156Z,53.84
2022-08-17T02:34:27.447Z,53.89
2022-08-17T02:36:54.044Z,53.69
2022-08-17T02:39:20.575Z,54.01
2022-08-17T02:41:47.344Z,53.69
2022-08-17T02:44:13.900Z,54.01
2022-08-17T02:47:00.811Z,54.32
2022-08-17T02:49:27.459Z,53.97
2022-08-17T02:51:53.951Z,54.25
2022-08-17T02:54:39.953Z,54.40
2022-08-17T02:57:10.017Z,54.19
2022-08-17T02:59:37.749Z,54.31
2022-08-17T03:02:06.204Z,54.19
2022-08-17T03:04:35.135Z,54.12
2022-08-17T03:07:02.601Z,54.07
2022-08-17T03:09:29.118Z,54.26
2022-08-17T03:11:56.130Z,53.96
2022-08-17T03:14:26.160Z,53.69
2022-08-17T03:16:52.990Z,53.62
2022-08-17T03:19:19.636Z,54.02
2022-08-17T03:21:46.192Z,54.19
2022-08-17T03:24:21.554Z,54.37
2022-08-17T03:26:55.121Z,54.67
2022-08-17T03:29:21.766Z,54.59
2022-08-17T03:31:49.673Z,54.52
2022-08-17T03:34:17.391Z,54.43
2022-08-17T03:36:44.368Z,54.84
2022-08-17T03:39:11.033Z,54.61
2022-08-17T03:41:38.829Z,55.56
2022-08-17T03:44:05.410Z,55.78
2022-08-17T03:46:50.677Z,55.23
2022-08-17T03:49:35.816Z,54.88
2022-08-17T03:52:20.795Z,55.28
2022-08-17T03:55:06.159Z,55.44
2022-08-17T03:57:32.701Z,55.84
2022-08-17T03:59:59.773Z,55.81
2022-08-17T04:02:33.687Z,56.11
2022-08-17T04:05:01.202Z,55.86
2022-08-17T04:07:30.237Z,55.97
2022-08-17T04:09:58.054Z,56.34
2022-08-17T04:12:26.373Z,56.52
2022-08-17T04:14:55.038Z,56.97
2022-08-17T04:17:29.108Z,56.17
2022-08-17T04:19:56.327Z,56.02
2022-08-17T04:22:32.868Z,55.65
2022-08-17T04:25:18.961Z,55.56
2022-08-17T04:27:45.500Z,55.81
2022-08-17T04:30:13.009Z,56.29
2022-08-17T04:33:07.391Z,56.23
2022-08-17T04:35:41.141Z,56.34
2022-08-17T04:38:10.224Z,56.03
2022-08-17T04:40:55.432Z,55.90
2022-08-17T04:43:24.871Z,56.18
2022-08-17T04:45:57.384Z,56.28
2022-08-17T04:48:29.737Z,55.85
2022-08-17T04:51:04.142Z,56.06
2022-08-17T04:53:30.767Z,55.91
2022-08-17T04:55:58.987Z,56.13
2022-08-17T04:58:25.571Z,56.28
2022-08-17T05:00:52.683Z,56.29
2022-08-17T05:03:19.467Z,56.42
2022-08-17T05:05:49.519Z,56.37
2022-08-17T05:08:19.095Z,55.86
2022-08-17T05:10:47.389Z,56.44
2022-08-17T05:13:19.675Z,55.99
2022-08-17T05:15:48.291Z,55.99
2022-08-17T05:18:16.611Z,56.15
2022-08-17T05:20:43.538Z,56.04
2022-08-17T05:23:12.767Z,56.18
2022-08-17T05:25:42.433Z,56.50
2022-08-17T05:28:14.845Z,56.31
2022-08-17T05:30:43.339Z,56.21
2022-08-17T05:33:20.766Z,55.66
2022-08-17T05:35:51.613Z,56.21
2022-08-17T05:38:20.259Z,55.92
2022-08-17T05:40:47.303Z,55.55
2022-08-17T05:43:23.265Z,55.87
2022-08-17T05:45:57.618Z,55.71
2022-08-17T05:48:35.530Z,57.38
2022-08-17T05:51:28.660Z,59.29
2022-08-17T05:54:14.564Z,59.68
2022-08-17T05:56:43.955Z,60.24
2022-08-17T05:59:29.311Z,59.02
2022-08-17T06:01:58.795Z,58.52
2022-08-17T06:04:35.972Z,59.37
2022-08-17T06:07:16.641Z,59.36
2022-08-17T06:09:43.159Z,58.66
2022-08-17T06:12:39.455Z,58.50
2022-08-17T06:15:12.741Z,58.39
2022-08-17T06:17:39.978Z,58.85
2022-08-17T06:20:14.236Z,58.61
2022-08-17T06:22:50.828Z,59.59
2022-08-17T06:25:23.444Z,59.82
2022-08-17T06:27:56.348Z,59.13
2022-08-17T06:30:27.489Z,58.76
2022-08-17T06:33:02.739Z,59.12
2022-08-17T06:35:34.654Z,58.35
2022-08-17T06:38:49.857Z,58.84
2022-08-17T06:41:28.531Z,59.36
2022-08-17T06:44:43.168Z,59.22
2022-08-17T06:47:08.942Z,59.66
2022-08-17T06:49:55.221Z,59.63
2022-08-17T06:52:47.241Z,59.93
2022-08-17T06:55:21.234Z,60.07
2022-08-17T06:57:53.532Z,60.70
2022-08-17T07:00:23.868Z,60.75
2022-08-17T07:02:58.216Z,60.69
2022-08-17T07:05:37.672Z,60.78
2022-08-17T07:08:38.424Z,61.29
2022-08-17T07:11:38.309Z,61.55
2022-08-17T07:14:37.965Z,61.40
2022-08-17T07:17:13.879Z,61.74
2022-08-17T07:19:45.336Z,62.06
2022-08-17T07:22:14.841Z,61.50
2022-08-17T07:24:51.422Z,61.89
2022-08-17T07:27:22.482Z,62.25
2022-08-17T07:29:53.645Z,61.85
2022-08-17T07:32:29.144Z,61.34
2022-08-17T07:35:40.747Z,61.58
2022-08-17T07:38:26.130Z,61.22
2022-08-17T07:41:03.101Z,60.92
2022-08-17T07:43:41.951Z,61.21
2022-08-17T07:46:30.301Z,61.26
2022-08-17T07:49:08.674Z,60.99
2022-08-17T07:51:44.241Z,61.04
2022-08-17T07:54:23.049Z,60.71
2022-08-17T07:56:52.403Z,60.58
2022-08-17T07:59:33.816Z,61.09
2022-08-17T08:02:05.321Z,60.89
2022-08-17T08:07:37.336Z,61.48
2022-08-17T08:10:13.864Z,60.85
2022-08-17T08:12:44.024Z,61.76
2022-08-17T08:15:21.820Z,61.52
2022-08-17T08:17:55.369Z,61.66
2022-08-17T08:20:53.494Z,61.81
2022-08-17T08:23:59.229Z,61.82
2022-08-17T08:26:40.579Z,61.39
2022-08-17T08:29:18.176Z,61.39
2022-08-17T08:31:57.169Z,61.80
2022-08-17T08:35:02.777Z,61.34
2022-08-17T08:37:49.885Z,62.10
2022-08-17T08:40:31.912Z,61.90
2022-08-17T08:43:30.494Z,62.18
2022-08-17T08:46:21.375Z,61.23
2022-08-17T08:49:39.061Z,61.04
2022-08-17T08:52:31.083Z,61.26
2022-08-17T08:55:10.586Z,61.33
2022-08-17T08:57:43.986Z,61.58
2022-08-17T09:00:16.140Z,62.37
2022-08-17T09:02:45.754Z,62.33
2022-08-17T09:05:57.070Z,62.24
2022-08-17T09:08:47.779Z,62.48
2022-08-17T09:12:02.412Z,62.65
2022-08-17T09:14:45.171Z,62.48
2022-08-17T09:17:29.794Z,62.15
2022-08-17T09:20:27.196Z,62.28
2022-08-17T09:23:03.359Z,62.13
2022-08-17T09:25:34.889Z,62.43
2022-08-17T09:28:06.500Z,62.70
2022-08-17T09:30:43.554Z,62.51
2022-08-17T09:33:12.832Z,62.92
2022-08-17T09:35:46.822Z,63.28
2022-08-17T09:38:35.494Z,63.31
2022-08-17T09:41:02.080Z,63.62
2022-08-17T09:43:38.875Z,63.64
2022-08-17T09:46:17.070Z,63.59
2022-08-17T09:48:50.782Z,63.92
2022-08-17T09:51:22.292Z,63.87
2022-08-17T09:53:50.113Z,64.25
2022-08-17T09:56:28.863Z,64.64
2022-08-17T09:59:20.077Z,64.52
2022-08-17T10:02:06.221Z,65.21
2022-08-17T10:04:39.752Z,65.07
2022-08-17T10:07:25.134Z,65.61
2022-08-17T10:10:02.860Z,65.63
2022-08-17T10:12:47.874Z,65.56
2022-08-17T10:15:22.518Z,65.79
2022-08-17T10:17:56.356Z,65.96
2022-08-17T10:20:42.880Z,66.31
2022-08-17T10:23:45.124Z,66.98
2022-08-17T10:26:18.753Z,67.94
2022-08-17T10:28:48.027Z,67.69
2022-08-17T10:31:40.503Z,67.74
2022-08-17T10:34:41.485Z,67.92
2022-08-17T10:37:28.237Z,68.23
2022-08-17T10:40:24.522Z,67.82
2022-08-17T10:42:56.046Z,68.61
2022-08-17T10:45:26.370Z,69.83
2022-08-17T10:48:05.876Z,71.27
2022-08-17T10:50:48.001Z,74.87
2022-08-17T10:53:32.905Z,77.91
2022-08-17T10:56:14.493Z,80.35
2022-08-17T10:58:47.062Z,78.74
2022-08-17T11:01:13.750Z,79.20
2022-08-17T11:03:55.812Z,79.06
2022-08-17T11:06:25.656Z,78.80
2022-08-17T11:09:00.916Z,78.66
2022-08-17T11:11:47.279Z,78.40
2022-08-17T11:14:36.075Z,80.02
2022-08-17T11:17:21.977Z,79.49
2022-08-17T11:20:13.266Z,79.33
2022-08-17T11:22:59.020Z,78.94
2022-08-17T11:25:38.539Z,78.02
2022-08-17T11:28:06.956Z,76.46
2022-08-17T11:30:50.968Z,76.52
2022-08-17T11:34:13.767Z,76.19
2022-08-17T11:36:46.569Z,74.57
2022-08-17T11:39:36.988Z,72.93
2022-08-17T11:42:09.826Z,70.75
2022-08-17T11:44:51.173Z,70.09
2022-08-17T11:48:26.562Z,70.03
2022-08-17T11:51:35.629Z,69.37
2022-08-17T11:54:34.058Z,68.70
2022-08-17T11:57:27.377Z,68.47
2022-08-17T11:59:55.430Z,68.59
2022-08-17T12:02:32.622Z,67.58
2022-08-17T12:05:14.377Z,67.09
2022-08-17T12:07:53.203Z,67.13
2022-08-17T12:10:31.665Z,67.12
2022-08-17T12:13:14.120Z,66.05
2022-08-17T12:15:50.158Z,66.93
2022-08-17T12:18:24.605Z,67.50
2022-08-17T12:21:28.511Z,66.73
2022-08-17T12:23:59.956Z,67.81
2022-08-17T12:26:31.553Z,68.26
2022-08-17T12:29:09.348Z,68.98
2022-08-17T12:31:47.649Z,69.24
2022-08-17T12:34:27.245Z,69.03
2022-08-17T12:37:01.310Z,69.30
2022-08-17T12:39:30.038Z,69.49
2022-08-17T12:42:03.948Z,69.50
2022-08-17T12:44:36.269Z,69.14
2022-08-17T12:47:22.827Z,68.66
2022-08-17T12:50:08.167Z,69.13
2022-08-17T12:52:59.740Z,69.08
2022-08-17T12:55:32.711Z,69.65
2022-08-17T12:58:01.809Z,70.38
2022-08-17T13:00:37.918Z,69.81
2022-08-17T13:03:09.526Z,69.47
2022-08-17T13:05:42.000Z,70.49
2022-08-17T13:08:17.980Z,71.46
2022-08-17T13:10:54.891Z,70.96
2022-08-17T13:13:26.710Z,70.60
2022-08-17T13:16:01.781Z,70.73
2022-08-17T13:18:45.411Z,72.16
2022-08-17T13:21:23.877Z,70.94
2022-08-17T13:24:13.662Z,70.55
2022-08-17T13:26:45.374Z,71.10
2022-08-17T13:29:25.980Z,71.26
2022-08-17T13:32:13.503Z,71.68
2022-08-17T13:35:13.217Z,71.77
2022-08-17T13:37:35.159Z,72.09
2022-08-17T13:40:07.742Z,72.60
2022-08-17T13:42:52.262Z,72.75
2022-08-17T13:45:35.193Z,72.76
2022-08-17T13:48:11.121Z,71.73
2022-08-17T13:53:26.088Z,71.95
2022-08-17T13:56:00.778Z,71.87
2022-08-17T13:58:51.257Z,72.06
2022-08-17T14:01:39.421Z,72.70
2022-08-17T14:04:15.243Z,72.83
2022-08-17T14:06:55.423Z,72.71
2022-08-17T14:09:26.158Z,72.94
2022-08-17T14:11:55.398Z,72.87
2022-08-17T14:14:23.172Z,72.53
2022-08-17T14:16:51.760Z,71.55
2022-08-17T14:19:19.390Z,71.64
2022-08-17T14:21:46.704Z,71.75
2022-08-17T14:24:22.949Z,71.80
2022-08-17T14:26:52.277Z,72.26
2022-08-17T14:29:20.516Z,71.60
2022-08-17T14:31:48.526Z,71.18
2022-08-17T14:34:20.460Z,70.95
2022-08-17T14:36:48.419Z,70.64
2022-08-17T14:39:16.424Z,70.60
2022-08-17T14:41:43.536Z,70.90
2022-08-17T14:44:13.430Z,69.91
2022-08-17T14:46:44.418Z,69.80
2022-08-17T14:49:13.336Z,69.63
2022-08-17T14:51:43.680Z,70.13
2022-08-17T14:54:11.895Z,69.97
2022-08-17T14:57:04.679Z,69.99
2022-08-17T14:59:45.581Z,69.76
2022-08-17T15:02:13.104Z,69.78
2022-08-17T15:04:44.936Z,70.06
2022-08-17T15:07:12.235Z,70.67
2022-08-17T15:09:39.004Z,70.28
2022-08-17T15:12:08.930Z,70.55
2022-08-17T15:14:35.891Z,70.81
2022-08-17T15:17:03.548Z,70.21
2022-08-17T15:19:30.200Z,69.65
2022-08-17T15:21:56.810Z,69.65
2022-08-17T15:24:23.379Z,70.25
2022-08-17T15:26:50.143Z,69.23
2022-08-17T15:29:16.954Z,69.59
2022-08-17T15:31:43.702Z,68.34
2022-08-17T15:34:10.283Z,67.45
2022-08-17T15:36:37.040Z,68.17
2022-08-17T15:39:05.420Z,67.93
2022-08-17T15:41:32.202Z,67.27
2022-08-17T15:43:58.880Z,67.11
2022-08-17T15:46:26.800Z,66.72
2022-08-17T15:48:58.086Z,66.81
2022-08-17T15:51:30.291Z,66.78
2022-08-17T15:54:04.528Z,66.55
2022-08-17T15:56:46.157Z,67.07
2022-08-17T15:59:12.766Z,67.64
2022-08-17T16:03:13.819Z,67.53
2022-08-17T16:04:29.662Z,66.40
2022-08-17T16:06:58.052Z,66.61
2022-08-17T16:09:24.673Z,66.86
2022-08-17T16:11:53.850Z,66.04
2022-08-17T16:14:22.325Z,65.77
2022-08-17T16:16:49.721Z,65.50
2022-08-17T16:19:16.254Z,65.37
2022-08-17T16:21:43.393Z,64.38
2022-08-17T16:24:13.307Z,64.29
2022-08-17T16:26:41.960Z,64.40
2022-08-17T16:29:08.910Z,64.68
2022-08-17T16:31:37.479Z,64.76
2022-08-17T16:34:16.953Z,64.58
2022-08-17T16:36:53.689Z,65.07
2022-08-17T16:39:26.733Z,64.75
2022-08-17T16:41:53.521Z,64.56
2022-08-17T16:44:21.645Z,64.58
2022-08-17T16:46:48.703Z,64.37
2022-08-17T16:49:35.116Z,63.91
2022-08-17T16:52:06.267Z,63.68
2022-08-17T16:54:33.392Z,63.96
2022-08-17T16:57:00.158Z,63.45
2022-08-17T16:59:31.020Z,63.17
2022-08-17T17:02:12.874Z,62.69
2022-08-17T17:04:54.272Z,62.05
2022-08-17T17:07:25.659Z,62.60
2022-08-17T17:09:55.361Z,62.34
2022-08-17T17:13:00.837Z,62.33
2022-08-17T17:15:10.583Z,60.81
2022-08-17T17:17:38.652Z,59.17
2022-08-17T17:20:21.077Z,59.19
2022-08-17T17:22:49.587Z,59.76
2022-08-17T17:25:16.199Z,60.12
2022-08-17T17:28:01.882Z,60.66
2022-08-17T17:30:38.121Z,61.36
2022-08-17T17:33:14.510Z,61.48
2022-08-17T17:35:46.115Z,61.72
2022-08-17T17:38:21.358Z,61.66
2022-08-17T17:40:53.797Z,60.74
2022-08-17T17:43:44.595Z,60.21
2022-08-17T17:46:39.709Z,59.75
2022-08-17T17:49:06.536Z,60.04
2022-08-17T17:52:06.566Z,60.16
2022-08-17T17:54:56.175Z,60.08
2022-08-17T17:57:47.726Z,60.71
2022-08-17T18:00:23.442Z,60.68
2022-08-17T18:03:26.608Z,60.80
2022-08-17T18:06:24.408Z,60.60
2022-08-17T18:09:09.061Z,60.73
2022-08-17T18:11:42.754Z,60.81
2022-08-17T18:14:47.085Z,60.88
2022-08-17T18:17:14.487Z,60.90
2022-08-17T18:19:41.503Z,61.12
2022-08-17T18:22:15.259Z,61.48
2022-08-17T18:24:45.510Z,61.49
2022-08-17T18:27:25.758Z,61.81
2022-08-17T18:29:55.548Z,61.63
2022-08-17T18:32:31.095Z,61.68
2022-08-17T18:35:10.014Z,61.53
2022-08-17T18:37:38.930Z,62.16
2022-08-17T18:40:31.148Z,62.07
2022-08-17T18:43:00.781Z,61.88
2022-08-17T18:45:33.453Z,61.54
2022-08-17T18:48:00.453Z,61.57
2022-08-17T18:50:34.798Z,61.10
2022-08-17T18:53:20.789Z,61.06
2022-08-17T18:56:31.213Z,61.42
2022-08-17T18:58:57.770Z,61.84
2022-08-17T19:01:41.704Z,61.69
2022-08-17T19:04:27.944Z,62.03
2022-08-17T19:07:05.363Z,61.90
2022-08-17T19:09:35.900Z,62.49
2022-08-17T19:12:06.093Z,63.02
2022-08-17T19:14:33.022Z,63.96
2022-08-17T19:17:09.165Z,64.19
2022-08-17T19:20:09.301Z,64.77
2022-08-17T19:22:56.435Z,64.47
2022-08-17T19:25:29.203Z,65.02
2022-08-17T19:28:06.329Z,65.10
2022-08-17T19:30:54.241Z,65.59
2022-08-17T19:33:20.858Z,66.24
2022-08-17T19:36:00.894Z,66.26
2022-08-17T19:39:03.317Z,66.74
2022-08-17T19:41:54.772Z,67.30
2022-08-17T19:44:34.817Z,68.34
2022-08-17T19:47:54.223Z,68.36
2022-08-17T19:50:38.440Z,68.79
2022-08-17T19:53:41.706Z,69.16
2022-08-17T19:56:34.253Z,70.29
2022-08-17T19:59:03.442Z,70.08
2022-08-17T20:02:19.189Z,70.38
2022-08-17T20:04:49.032Z,70.64
2022-08-17T20:07:22.043Z,70.58
2022-08-17T20:10:04.786Z,71.21
2022-08-17T20:12:36.676Z,71.08
2022-08-17T20:15:16.912Z,70.45
2022-08-17T20:17:46.644Z,70.27
2022-08-17T20:20:30.407Z,69.64
2022-08-17T20:23:18.959Z,69.28
2022-08-17T20:26:15.915Z,69.23
2022-08-17T20:29:03.978Z,69.21
2022-08-17T20:31:39.528Z,69.27
2022-08-17T20:34:38.081Z,69.14
2022-08-17T20:37:09.427Z,69.79
2022-08-17T20:39:45.582Z,71.03
2022-08-17T20:42:21.018Z,71.38
2022-08-17T20:45:02.709Z,71.64
2022-08-17T20:47:55.131Z,71.46
2022-08-17T20:50:44.045Z,71.91
2022-08-17T20:53:15.164Z,71.66
2022-08-17T20:55:52.276Z,71.79
2022-08-17T20:58:21.088Z,71.81
2022-08-17T21:00:56.677Z,72.31
2022-08-17T21:03:23.526Z,72.74
2022-08-17T21:06:17.065Z,72.92
2022-08-17T21:08:53.785Z,73.87
2022-08-17T21:11:56.989Z,73.43
2022-08-17T21:14:31.393Z,73.20
2022-08-17T21:17:12.081Z,73.76
2022-08-17T21:20:11.455Z,73.39
2022-08-17T21:22:47.835Z,73.51
2022-08-17T21:25:52.829Z,73.77
2022-08-17T21:29:00.474Z,73.71
2022-08-17T21:31:33.199Z,73.78
2022-08-17T21:34:16.777Z,75.27
2022-08-17T21:36:44.550Z,75.01
2022-08-17T21:39:17.308Z,75.39
2022-08-17T21:41:54.398Z,75.12
2022-08-17T21:44:47.125Z,74.81
2022-08-17T21:47:13.840Z,75.46
2022-08-17T21:49:40.380Z,75.47
2022-08-17T21:52:07.551Z,75.94
2022-08-17T21:54:38.741Z,75.56
2022-08-17T21:57:15.584Z,76.04
2022-08-17T21:59:44.180Z,76.51
2022-08-17T22:02:51.861Z,76.25
2022-08-17T22:05:31.087Z,76.04
2022-08-17T22:08:03.924Z,76.41
2022-08-17T22:10:35.041Z,76.28
2022-08-17T22:13:23.169Z,76.49
2022-08-17T22:15:51.022Z,76.61
2022-08-17T22:18:25.085Z,76.50
2022-08-17T22:20:55.010Z,76.05
2022-08-17T22:23:41.677Z,76.22
2022-08-17T22:26:12.723Z,76.29
2022-08-17T22:28:54.444Z,76.09
2022-08-17T22:31:23.067Z,76.57
2022-08-17T22:34:02.786Z,76.98
2022-08-17T22:36:33.974Z,77.39
2022-08-17T22:39:22.994Z,78.35
2022-08-17T22:42:00.726Z,79.54
2022-08-17T22:44:29.423Z,79.62
2022-08-17T22:47:26.831Z,80.91
2022-08-17T22:49:58.352Z,82.14
2022-08-17T22:52:33.916Z,82.93
2022-08-17T22:55:23.727Z,83.98
2022-08-17T22:58:09.496Z,83.99
2022-08-17T23:00:41.980Z,83.33
2022-08-17T23:03:14.491Z,83.31
2022-08-17T23:05:44.878Z,83.60
2022-08-17T23:08:12.719Z,83.59
2022-08-17T23:10:41.625Z,84.74
2022-08-17T23:13:11.830Z,85.06
2022-08-17T23:15:40.426Z,85.35
2022-08-17T23:18:07.736Z,85.32
2022-08-17T23:20:36.464Z,84.74
2022-08-17T23:23:06.695Z,83.62
2022-08-17T23:25:35.150Z,82.88
2022-08-17T23:28:05.079Z,83.01
2022-08-17T23:30:35.404Z,83.41
2022-08-17T23:33:08.822Z,83.85
2022-08-17T23:35:39.889Z,83.90
2022-08-17T23:38:11.604Z,84.46
2022-08-17T23:40:39.653Z,84.57
2022-08-17T23:43:25.370Z,84.97
2022-08-17T23:45:55.284Z,85.19
2022-08-17T23:48:30.343Z,84.91
2022-08-17T23:51:09.771Z,84.21
2022-08-17T23:53:41.923Z,84.42
2022-08-17T23:56:11.202Z,84.39
2022-08-17T23:58:42.892Z,83.98
